Time;durP1;ratioP1;P1;durP2;ratioP2;P2;SDS_P1;SDS_P2;PMS_P1;PMS_P2;Temp;Humidity;BMP_temperature;BMP_pressure;BME280_temperature;BME280_humidity;BME280_pressure;Samples;Min_cycle;Max_cycle;Signal;HPM_P1;HPM_P2
2021/11/04 00:00:48;;;;;;;10.55;7.32;;;10.90;75.10;;;;;;5053667;28;20051;-80
2021/11/04 00:03:13;;;;;;;10.45;6.60;;;10.90;75.20;;;;;;5053658;28;20466;-80
2021/11/04 00:05:39;;;;;;;10.25;6.85;;;10.90;75.20;;;;;;5053731;28;20032;-80
2021/11/04 00:08:05;;;;;;;9.60;6.40;;;10.90;75.20;;;;;;5053849;28;20029;-81
2021/11/04 00:10:33;;;;;;;9.80;6.93;;;10.90;75.20;;;;;;5053978;28;20393;-80
2021/11/04 00:12:59;;;;;;;10.32;7.35;;;10.90;75.20;;;;;;5053995;28;20032;-81
2021/11/04 00:15:25;;;;;;;10.27;6.65;;;10.80;75.20;;;;;;5054031;28;20358;-80
2021/11/04 00:17:52;;;;;;;10.70;7.07;;;10.80;75.10;;;;;;5054219;28;20037;-81
2021/11/04 00:20:18;;;;;;;9.50;6.18;;;10.80;75.10;;;;;;5053437;28;20028;-80
2021/11/04 00:22:44;;;;;;;10.95;7.07;;;10.80;75.20;;;;;;5053468;28;20026;-80
2021/11/04 00:25:11;;;;;;;9.68;6.63;;;10.90;75.20;;;;;;5036343;28;20102;-81
2021/11/04 00:27:37;;;;;;;9.23;6.60;;;10.80;75.20;;;;;;5053414;28;20106;-80
2021/11/04 00:30:05;;;;;;;9.23;6.47;;;10.80;75.20;;;;;;5053322;28;20067;-80
2021/11/04 00:32:31;;;;;;;10.48;6.80;;;10.80;75.20;;;;;;5054794;28;20052;-80
2021/11/04 00:34:57;;;;;;;9.75;6.57;;;10.80;75.20;;;;;;5054143;28;20481;-80
2021/11/04 00:37:22;;;;;;;8.18;5.75;;;10.80;75.20;;;;;;5053849;28;20442;-82
2021/11/04 00:39:48;;;;;;;9.52;6.68;;;10.80;75.20;;;;;;5036671;28;20037;-80
2021/11/04 00:42:14;;;;;;;10.48;6.95;;;10.80;75.20;;;;;;5053773;28;20079;-80
2021/11/04 00:44:40;;;;;;;9.93;6.45;;;10.80;75.20;;;;;;5053022;28;20071;-81
2021/11/04 00:47:06;;;;;;;8.85;6.15;;;10.80;75.20;;;;;;5053703;28;20092;-81
2021/11/04 00:49:32;;;;;;;9.50;6.38;;;10.80;75.20;;;;;;5054427;28;20481;-80
2021/11/04 00:51:58;;;;;;;9.45;6.47;;;10.80;75.20;;;;;;5052918;28;20029;-80
2021/11/04 00:54:23;;;;;;;9.43;6.15;;;10.80;75.30;;;;;;5052744;28;20029;-80
2021/11/04 00:56:49;;;;;;;8.27;5.45;;;10.80;75.20;;;;;;5053676;28;20036;-80
2021/11/04 00:59:15;;;;;;;9.50;6.47;;;10.80;75.30;;;;;;5053601;28;20032;-81
2021/11/04 01:01:41;;;;;;;8.82;6.03;;;10.80;75.30;;;;;;5052281;28;20040;-80
2021/11/04 01:04:07;;;;;;;8.18;5.50;;;10.80;75.30;;;;;;5036051;28;20025;-80
2021/11/04 01:06:33;;;;;;;9.45;6.50;;;10.80;75.20;;;;;;5052549;28;20037;-80
2021/11/04 01:08:59;;;;;;;8.63;5.85;;;10.70;75.20;;;;;;5069388;28;20017;-80
2021/11/04 01:11:24;;;;;;;9.15;6.55;;;10.70;75.20;;;;;;5052734;28;20485;-80
2021/11/04 01:13:51;;;;;;;8.10;5.50;;;10.70;75.20;;;;;;5052616;28;20453;-80
2021/11/04 01:16:17;;;;;;;8.73;5.78;;;10.80;75.30;;;;;;5053189;28;20040;-80
2021/11/04 01:18:43;;;;;;;7.75;5.07;;;10.70;75.20;;;;;;5036225;28;20036;-81
2021/11/04 01:21:10;;;;;;;9.52;6.10;;;10.70;75.30;;;;;;5052404;28;20029;-80
2021/11/04 01:23:36;;;;;;;8.98;5.90;;;10.70;75.30;;;;;;5036013;28;20029;-80
2021/11/04 01:26:03;;;;;;;9.02;6.32;;;10.70;75.30;;;;;;5035726;28;20485;-80
2021/11/04 01:28:29;;;;;;;8.50;5.80;;;10.70;75.30;;;;;;5036565;28;20379;-80
2021/11/04 01:30:54;;;;;;;8.77;5.97;;;10.70;75.30;;;;;;5036362;28;20040;-81
2021/11/04 01:33:20;;;;;;;9.43;6.38;;;10.70;75.20;;;;;;5053630;28;20045;-80
2021/11/04 01:35:46;;;;;;;9.10;6.25;;;10.70;75.20;;;;;;5053984;28;20033;-82
2021/11/04 01:38:11;;;;;;;8.30;5.75;;;10.70;75.30;;;;;;5053552;28;20029;-80
2021/11/04 01:40:39;;;;;;;9.68;6.47;;;10.70;75.30;;;;;;5036643;28;20110;-80
2021/11/04 01:43:05;;;;;;;9.07;5.93;;;10.70;75.30;;;;;;5036121;28;20033;-80
2021/11/04 01:45:32;;;;;;;8.77;6.15;;;10.70;75.30;;;;;;5052194;28;20117;-80
2021/11/04 01:47:59;;;;;;;8.20;5.82;;;10.70;75.30;;;;;;5051880;28;20029;-81
2021/11/04 01:50:25;;;;;;;9.32;6.60;;;10.70;75.30;;;;;;5052062;28;20061;-80
2021/11/04 01:52:51;;;;;;;8.43;5.85;;;10.70;75.30;;;;;;5052069;28;20053;-80
2021/11/04 01:55:23;;;;;;;9.25;6.30;;;10.70;75.30;;;;;;5052119;28;20032;-81
2021/11/04 01:57:51;;;;;;;8.93;6.18;;;10.70;75.40;;;;;;5052085;28;20116;-81
2021/11/04 02:00:19;;;;;;;9.68;6.65;;;10.70;75.30;;;;;;5068582;28;20032;-80
2021/11/04 02:02:48;;;;;;;9.57;6.18;;;10.70;75.30;;;;;;5051944;28;20037;-80
2021/11/04 02:05:18;;;;;;;8.65;6.45;;;10.60;75.30;;;;;;5051899;28;20047;-81
2021/11/04 02:07:47;;;;;;;8.73;5.57;;;10.70;75.30;;;;;;5052276;28;20462;-80
2021/11/04 02:10:31;;;;;;;9.80;6.35;;;10.60;75.30;;;;;;5051869;28;20381;-81
2021/11/04 02:13:11;;;;;;;8.35;5.93;;;10.60;75.40;;;;;;5052175;28;20120;-83
2021/11/04 02:15:39;;;;;;;8.18;5.88;;;10.70;75.40;;;;;;5056455;28;20033;-81
2021/11/04 02:18:08;;;;;;;9.10;6.50;;;10.60;75.30;;;;;;5056409;28;20017;-80
2021/11/04 02:21:05;;;;;;;8.85;6.00;;;10.60;75.30;;;;;;5072179;28;20052;-81
2021/11/04 02:24:05;;;;;;;9.10;6.38;;;10.60;75.50;;;;;;5055479;28;20029;-81
2021/11/04 02:26:33;;;;;;;8.88;6.50;;;10.60;75.40;;;;;;5055466;28;20124;-80
2021/11/04 02:28:59;;;;;;;8.18;5.80;;;10.60;75.30;;;;;;5056184;28;20129;-81
2021/11/04 02:31:25;;;;;;;9.55;6.18;;;10.60;75.40;;;;;;5056188;28;20053;-81
2021/11/04 02:33:52;;;;;;;9.30;6.75;;;10.60;75.40;;;;;;5056349;28;20043;-80
2021/11/04 02:36:19;;;;;;;8.35;5.93;;;10.60;75.50;;;;;;5055487;28;20051;-80
2021/11/04 02:38:45;;;;;;;8.80;6.63;;;10.60;75.40;;;;;;5056215;28;20039;-81
2021/11/04 02:41:12;;;;;;;9.40;6.43;;;10.60;76.00;;;;;;5055330;28;20029;-80
2021/11/04 02:43:38;;;;;;;8.45;5.97;;;10.60;75.40;;;;;;5055872;28;20040;-81
2021/11/04 02:46:05;;;;;;;9.90;6.95;;;10.60;75.40;;;;;;5054636;28;20049;-80
2021/11/04 02:48:32;;;;;;;10.25;6.90;;;10.60;75.40;;;;;;5055088;28;20377;-80
2021/11/04 02:50:58;;;;;;;8.95;5.97;;;10.60;76.00;;;;;;5054711;28;20033;-81
2021/11/04 02:53:28;;;;;;;8.93;6.55;;;10.60;75.40;;;;;;5054913;28;20038;-80
2021/11/04 02:55:54;;;;;;;7.80;5.63;;;10.60;75.40;;;;;;5054907;28;20037;-80
2021/11/04 02:58:20;;;;;;;9.23;6.60;;;10.60;75.40;;;;;;5038379;28;20107;-80
2021/11/04 03:00:49;;;;;;;8.35;5.72;;;10.60;75.40;;;;;;5056418;28;20032;-80
2021/11/04 03:03:16;;;;;;;8.60;6.15;;;10.60;75.40;;;;;;5054751;28;20025;-80
2021/11/04 03:05:42;;;;;;;9.95;6.55;;;10.50;76.00;;;;;;5071692;28;20041;-81
2021/11/04 03:08:08;;;;;;;9.55;6.63;;;10.50;75.30;;;;;;5071909;28;20029;-80
2021/11/04 03:10:34;;;;;;;8.77;6.07;;;10.60;75.80;;;;;;5071469;28;20134;-80
2021/11/04 03:12:59;;;;;;;10.13;6.50;;;10.50;75.30;;;;;;5054634;28;20469;-80
2021/11/04 03:15:28;;;;;;;9.68;6.85;;;10.50;75.40;;;;;;5054556;28;20114;-80
2021/11/04 03:17:55;;;;;;;10.30;7.05;;;10.50;75.40;;;;;;5054450;28;20029;-80
2021/11/04 03:20:21;;;;;;;9.52;7.03;;;10.50;75.40;;;;;;5054597;28;20029;-80
2021/11/04 03:22:48;;;;;;;10.35;6.90;;;10.50;75.40;;;;;;5054635;28;20029;-80
2021/11/04 03:25:17;;;;;;;10.85;7.60;;;10.50;75.40;;;;;;5053671;28;20107;-82
2021/11/04 03:27:45;;;;;;;10.98;8.02;;;10.50;75.40;;;;;;5054261;28;20037;-80
2021/11/04 03:30:14;;;;;;;11.05;7.47;;;10.50;75.40;;;;;;5054249;28;20527;-81
2021/11/04 03:32:42;;;;;;;10.60;7.63;;;10.50;75.40;;;;;;5054152;28;20033;-80
2021/11/04 03:35:09;;;;;;;11.45;7.93;;;10.50;75.40;;;;;;5054048;28;20401;-80
2021/11/04 03:37:39;;;;;;;10.50;7.43;;;10.50;75.40;;;;;;5070631;28;20029;-80
2021/11/04 03:40:06;;;;;;;10.85;7.53;;;10.50;75.50;;;;;;5054129;28;20067;-81
2021/11/04 03:42:33;;;;;;;10.10;7.32;;;10.50;75.40;;;;;;5037565;28;20461;-81
2021/11/04 03:44:59;;;;;;;10.68;8.05;;;10.50;75.40;;;;;;5037685;28;20068;-79
2021/11/04 03:47:29;;;;;;;11.68;8.20;;;10.50;75.40;;;;;;5054155;28;20036;-81
2021/11/04 03:49:56;;;;;;;10.27;7.25;;;10.50;75.50;;;;;;5054792;28;20427;-81
2021/11/04 03:52:22;;;;;;;11.43;7.95;;;10.50;75.50;;;;;;5055101;28;20477;-81
2021/11/04 03:54:49;;;;;;;10.63;8.00;;;10.50;75.50;;;;;;5054094;28;20166;-80
2021/11/04 03:57:16;;;;;;;11.05;7.90;;;10.50;75.50;;;;;;5054303;28;20466;-80
2021/11/04 03:59:41;;;;;;;12.35;8.52;;;10.50;75.50;;;;;;5053977;28;20440;-80
2021/11/04 04:02:08;;;;;;;11.65;7.60;;;10.50;75.50;;;;;;5053644;28;20029;-80
2021/11/04 04:04:34;;;;;;;11.80;8.38;;;10.50;75.50;;;;;;5070233;28;20041;-80
2021/11/04 04:07:00;;;;;;;11.70;8.18;;;10.50;75.50;;;;;;5053615;28;20519;-80
2021/11/04 04:09:27;;;;;;;13.48;8.65;;;10.50;75.50;;;;;;5053753;28;20079;-80
2021/11/04 04:11:54;;;;;;;12.35;8.35;;;10.50;75.50;;;;;;5053412;28;20025;-80
2021/11/04 04:14:20;;;;;;;12.63;8.52;;;10.50;75.50;;;;;;5058568;28;20029;-80
2021/11/04 04:16:46;;;;;;;12.55;8.95;;;10.50;75.50;;;;;;5054404;28;20030;-80
2021/11/04 04:19:12;;;;;;;11.77;8.50;;;10.50;75.50;;;;;;5053595;28;20508;-80
2021/11/04 04:21:39;;;;;;;11.27;7.93;;;10.50;75.50;;;;;;5038039;28;20032;-80
2021/11/04 04:24:05;;;;;;;11.35;7.68;;;10.50;75.50;;;;;;5053554;28;20044;-81
2021/11/04 04:26:33;;;;;;;11.98;8.48;;;10.50;75.50;;;;;;5036981;28;20040;-80
2021/11/04 04:29:01;;;;;;;12.15;8.48;;;10.50;75.50;;;;;;5053192;28;20053;-81
2021/11/04 04:31:27;;;;;;;12.23;8.27;;;10.50;75.50;;;;;;5053570;28;20051;-80
2021/11/04 04:33:52;;;;;;;12.48;8.45;;;10.50;75.60;;;;;;5053178;28;20501;-80
2021/11/04 04:36:19;;;;;;;10.63;7.97;;;10.50;75.50;;;;;;5052793;28;20458;-80
2021/11/04 04:38:45;;;;;;;11.68;8.13;;;10.50;75.50;;;;;;5053091;28;20035;-81
2021/11/04 04:41:11;;;;;;;10.68;8.40;;;10.50;75.50;;;;;;5053010;28;20115;-81
2021/11/04 04:43:36;;;;;;;12.10;8.35;;;10.50;75.50;;;;;;5052933;28;20037;-81
2021/11/04 04:46:02;;;;;;;11.57;7.78;;;10.50;76.10;;;;;;5069718;28;20037;-81
2021/11/04 04:48:28;;;;;;;10.82;7.47;;;10.50;75.50;;;;;;5036477;28;20078;-80
2021/11/04 04:50:54;;;;;;;11.40;8.18;;;10.50;75.60;;;;;;5052850;28;20580;-82
2021/11/04 04:53:19;;;;;;;11.25;7.95;;;10.50;75.50;;;;;;5053306;28;20068;-81
2021/11/04 04:55:45;;;;;;;12.10;8.68;;;10.40;75.50;;;;;;5052885;28;20029;-80
2021/11/04 04:58:11;;;;;;;12.07;8.57;;;10.50;75.50;;;;;;5052825;28;20074;-80
2021/11/04 05:00:37;;;;;;;11.00;7.85;;;10.50;75.50;;;;;;5052944;28;20029;-81
2021/11/04 05:03:05;;;;;;;10.15;7.70;;;10.50;75.50;;;;;;5053245;28;20047;-80
2021/11/04 05:05:31;;;;;;;10.55;7.70;;;10.40;75.50;;;;;;5052425;28;20029;-80
2021/11/04 05:07:57;;;;;;;11.10;8.15;;;10.50;75.50;;;;;;5036087;28;20074;-80
2021/11/04 05:10:23;;;;;;;11.15;8.45;;;10.50;75.50;;;;;;5019601;28;20036;-78
2021/11/04 05:12:49;;;;;;;10.85;7.97;;;10.40;75.50;;;;;;5052987;28;20035;-80
2021/11/04 05:15:15;;;;;;;12.13;8.60;;;10.40;75.50;;;;;;5035800;28;20029;-80
2021/11/04 05:17:40;;;;;;;11.30;8.52;;;10.40;75.50;;;;;;5053473;28;20057;-80
2021/11/04 05:20:08;;;;;;;9.80;7.53;;;10.40;75.50;;;;;;5052350;28;20469;-80
2021/11/04 05:22:34;;;;;;;10.95;8.43;;;10.40;75.50;;;;;;5053397;28;20388;-80
2021/11/04 05:25:00;;;;;;;10.88;8.02;;;10.50;75.50;;;;;;5052052;28;20053;-80
2021/11/04 05:27:28;;;;;;;10.13;7.85;;;10.40;75.50;;;;;;5052405;28;20378;-80
2021/11/04 05:29:54;;;;;;;10.27;7.40;;;10.50;75.60;;;;;;5052629;28;20560;-80
2021/11/04 05:32:22;;;;;;;11.38;8.05;;;10.40;75.50;;;;;;5052408;28;20025;-80
2021/11/04 05:34:48;;;;;;;10.68;8.18;;;10.40;75.50;;;;;;5052337;28;20040;-81
2021/11/04 05:37:14;;;;;;;10.35;7.95;;;10.40;75.50;;;;;;5053237;28;20025;-81
2021/11/04 05:39:40;;;;;;;11.85;8.05;;;10.50;75.60;;;;;;5052327;28;20124;-81
2021/11/04 05:42:07;;;;;;;11.25;7.53;;;10.40;75.50;;;;;;5068683;28;20033;-82
2021/11/04 05:44:34;;;;;;;11.73;8.07;;;10.40;75.50;;;;;;5053947;28;20029;-81
2021/11/04 05:46:59;;;;;;;11.45;8.10;;;10.40;75.50;;;;;;5052294;28;20025;-82
2021/11/04 05:49:25;;;;;;;10.48;7.28;;;10.40;75.50;;;;;;5055854;28;20024;-79
2021/11/04 05:51:51;;;;;;;10.30;7.47;;;10.40;75.50;;;;;;5056361;28;20025;-80
2021/11/04 05:54:16;;;;;;;10.23;7.82;;;10.40;75.50;;;;;;5039441;28;20465;-80
2021/11/04 05:56:42;;;;;;;11.00;8.25;;;10.40;75.50;;;;;;5056358;28;20041;-81
2021/11/04 05:59:08;;;;;;;10.73;7.82;;;10.40;75.50;;;;;;5056755;28;20393;-83
2021/11/04 06:01:34;;;;;;;10.30;7.68;;;10.40;75.50;;;;;;5056028;28;20477;-78
2021/11/04 06:03:59;;;;;;;9.65;7.70;;;10.40;75.50;;;;;;5056079;28;20112;-80
2021/11/04 06:06:25;;;;;;;10.63;7.60;;;10.40;75.50;;;;;;5055833;28;20049;-79
2021/11/04 06:08:51;;;;;;;11.45;8.38;;;10.40;75.50;;;;;;5055719;28;20128;-79
2021/11/04 06:11:17;;;;;;;9.50;7.32;;;10.40;75.50;;;;;;5057231;28;20108;-77
2021/11/04 06:13:42;;;;;;;10.25;7.88;;;10.40;75.50;;;;;;5056020;28;20123;-79
2021/11/04 06:16:13;;;;;;;9.80;7.00;;;10.50;75.50;;;;;;5055579;28;20078;-79
2021/11/04 06:18:40;;;;;;;9.30;6.78;;;10.40;75.50;;;;;;5056424;28;20408;-79
2021/11/04 06:21:07;;;;;;;10.10;7.75;;;10.40;75.50;;;;;;5055612;28;20025;-79
2021/11/04 06:23:33;;;;;;;9.88;7.65;;;10.40;75.50;;;;;;5055464;28;20056;-78
2021/11/04 06:25:59;;;;;;;10.52;7.85;;;10.40;75.50;;;;;;5055263;28;20080;-78
2021/11/04 06:28:25;;;;;;;9.55;6.95;;;10.40;75.50;;;;;;5055615;28;20044;-78
2021/11/04 06:30:50;;;;;;;10.05;7.68;;;10.40;75.50;;;;;;5055603;28;20029;-79
2021/11/04 06:33:16;;;;;;;10.57;7.68;;;10.40;75.50;;;;;;5055545;28;20033;-79
2021/11/04 06:35:42;;;;;;;9.23;7.18;;;10.40;75.50;;;;;;5038764;28;20044;-80
2021/11/04 06:38:08;;;;;;;9.73;7.82;;;10.40;75.50;;;;;;5055426;28;20040;-78
2021/11/04 06:40:34;;;;;;;9.07;7.20;;;10.40;75.50;;;;;;5056456;28;20091;-79
2021/11/04 06:43:00;;;;;;;9.75;7.45;;;10.40;75.50;;;;;;5055122;28;20056;-79
2021/11/04 06:45:25;;;;;;;9.88;7.50;;;10.40;75.50;;;;;;5055291;28;20393;-78
2021/11/04 06:47:55;;;;;;;9.60;7.00;;;10.40;75.60;;;;;;5056058;28;20033;-79
2021/11/04 06:50:25;;;;;;;10.32;8.05;;;10.40;75.60;;;;;;5055804;28;20091;-80
2021/11/04 06:53:10;;;;;;;8.93;7.20;;;10.40;75.60;;;;;;5055309;28;20029;-79
2021/11/04 06:55:40;;;;;;;9.93;7.28;;;10.40;75.60;;;;;;5055781;28;20043;-78
2021/11/04 06:58:14;;;;;;;9.30;7.30;;;10.40;75.50;;;;;;5055530;28;20040;-78
2021/11/04 07:00:47;;;;;;;9.75;7.22;;;10.40;75.60;;;;;;5055373;28;20041;-78
2021/11/04 07:03:23;;;;;;;8.63;6.65;;;10.40;75.60;;;;;;5055185;28;20025;-78
2021/11/04 07:05:55;;;;;;;14.85;7.47;;;10.40;75.60;;;;;;5055802;28;20043;-78
2021/11/04 07:08:24;;;;;;;8.82;7.18;;;10.40;75.60;;;;;;5055439;28;20037;-81
2021/11/04 07:11:01;;;;;;;8.30;6.55;;;10.40;75.60;;;;;;5054549;28;20457;-80
2021/11/04 07:13:31;;;;;;;9.48;6.72;;;10.30;75.70;;;;;;5055032;28;20032;-79
2021/11/04 07:15:58;;;;;;;8.70;6.43;;;10.40;75.60;;;;;;5070741;28;20496;-78
2021/11/04 07:18:25;;;;;;;9.65;7.20;;;10.40;75.60;;;;;;5054444;28;20082;-79
2021/11/04 07:20:59;;;;;;;8.88;6.82;;;10.40;75.60;;;;;;5054864;28;20032;-79
2021/11/04 07:23:38;;;;;;;8.25;6.18;;;10.40;75.70;;;;;;5054755;28;20068;-79
2021/11/04 07:26:06;;;;;;;8.07;6.30;;;10.40;75.70;;;;;;5056213;28;20049;-78
2021/11/04 07:28:38;;;;;;;9.02;6.95;;;10.40;75.60;;;;;;5054412;28;20071;-79
2021/11/04 07:31:09;;;;;;;9.48;7.20;;;10.40;75.70;;;;;;5071050;28;20108;-78
2021/11/04 07:33:36;;;;;;;9.23;6.25;;;10.40;75.70;;;;;;5071073;28;20119;-79
2021/11/04 07:36:03;;;;;;;9.57;6.75;;;10.40;75.60;;;;;;5054869;28;20033;-78
2021/11/04 07:38:32;;;;;;;8.80;6.57;;;10.40;75.70;;;;;;5054186;28;20035;-79
2021/11/04 07:40:57;;;;;;;8.60;6.38;;;10.40;75.70;;;;;;5053997;28;20036;-79
2021/11/04 07:43:25;;;;;;;8.43;6.78;;;10.40;75.60;;;;;;5054274;28;20025;-79
2021/11/04 07:45:50;;;;;;;8.77;6.45;;;10.40;75.70;;;;;;5054160;28;20037;-79
2021/11/04 07:48:20;;;;;;;9.20;6.70;;;10.40;75.60;;;;;;5054833;28;20044;-79
2021/11/04 07:50:49;;;;;;;8.48;6.38;;;10.40;75.70;;;;;;5037669;28;20552;-79
2021/11/04 07:53:15;;;;;;;8.60;6.70;;;10.40;75.70;;;;;;5054562;28;20041;-79
2021/11/04 07:55:41;;;;;;;7.85;5.72;;;10.40;75.70;;;;;;5053818;28;20461;-79
2021/11/04 07:58:07;;;;;;;8.70;6.30;;;10.40;75.70;;;;;;5053836;28;20029;-79
2021/11/04 08:00:33;;;;;;;9.48;7.00;;;10.40;75.70;;;;;;5055236;28;20040;-80
2021/11/04 08:02:58;;;;;;;8.52;6.20;;;10.40;75.70;;;;;;5053713;28;20021;-78
2021/11/04 08:05:24;;;;;;;7.43;5.90;;;10.40;75.70;;;;;;5053662;28;20044;-79
2021/11/04 08:07:50;;;;;;;7.45;5.72;;;10.40;75.70;;;;;;5070588;28;20036;-80
2021/11/04 08:10:17;;;;;;;8.40;6.30;;;10.40;75.70;;;;;;5053537;28;20083;-80
2021/11/04 08:12:44;;;;;;;8.60;6.43;;;10.40;75.70;;;;;;5052839;28;20116;-78
2021/11/04 08:15:12;;;;;;;9.07;6.90;;;10.40;76.30;;;;;;5036901;28;20025;-79
2021/11/04 08:17:38;;;;;;;8.43;6.20;;;10.40;75.70;;;;;;5053701;28;20583;-79
2021/11/04 08:20:06;;;;;;;8.90;6.80;;;10.40;75.70;;;;;;5070730;28;20040;-80
2021/11/04 08:22:32;;;;;;;7.72;5.85;;;10.40;75.70;;;;;;5053781;28;20048;-80
2021/11/04 08:24:59;;;;;;;7.70;5.70;;;10.40;75.70;;;;;;5054940;28;20064;-79
2021/11/04 08:27:25;;;;;;;8.63;6.28;;;10.40;75.70;;;;;;5053609;28;20056;-80
2021/11/04 08:29:51;;;;;;;7.70;5.68;;;10.40;75.70;;;;;;5053279;28;20037;-80
2021/11/04 08:32:17;;;;;;;7.65;6.07;;;10.40;75.70;;;;;;5053112;28;20031;-79
2021/11/04 08:34:43;;;;;;;7.82;5.78;;;10.40;75.80;;;;;;5053042;28;20155;-80
2021/11/04 08:37:10;;;;;;;8.68;6.13;;;10.40;75.80;;;;;;5053341;28;20029;-79
2021/11/04 08:39:36;;;;;;;8.10;5.88;;;10.40;75.80;;;;;;5069457;28;20035;-80
2021/11/04 08:42:05;;;;;;;7.75;5.80;;;10.40;75.80;;;;;;5053313;28;20368;-79
2021/11/04 08:44:32;;;;;;;8.48;6.20;;;10.40;75.80;;;;;;5053044;28;20029;-80
2021/11/04 08:46:59;;;;;;;8.40;6.32;;;10.50;75.90;;;;;;5053719;28;20062;-80
2021/11/04 08:49:24;;;;;;;7.57;5.70;;;10.50;75.90;;;;;;5053754;28;20033;-79
2021/11/04 08:51:54;;;;;;;7.75;5.63;;;10.50;75.90;;;;;;5052997;28;20029;-80
2021/11/04 08:54:25;;;;;;;7.82;6.07;;;10.50;75.90;;;;;;5053883;28;20040;-79
2021/11/04 08:56:51;;;;;;;8.10;6.00;;;10.50;75.90;;;;;;5054284;28;20040;-79
2021/11/04 08:59:18;;;;;;;7.43;5.70;;;10.50;75.90;;;;;;5053551;28;20029;-78
2021/11/04 09:01:45;;;;;;;7.50;5.97;;;10.50;75.90;;;;;;5052907;28;20024;-79
2021/11/04 09:04:12;;;;;;;7.90;6.20;;;10.50;75.90;;;;;;5052497;28;20025;-78
2021/11/04 09:06:39;;;;;;;8.07;6.38;;;10.60;76.00;;;;;;5069321;28;20032;-81
2021/11/04 09:09:07;;;;;;;7.50;5.72;;;10.60;76.00;;;;;;5035867;28;20033;-78
2021/11/04 09:11:33;;;;;;;7.72;6.07;;;10.60;76.00;;;;;;5052821;28;20492;-81
2021/11/04 09:13:59;;;;;;;7.68;5.85;;;10.60;76.00;;;;;;5052595;28;20393;-78
2021/11/04 09:16:26;;;;;;;7.47;5.90;;;10.60;75.90;;;;;;5052683;28;20032;-79
2021/11/04 09:18:52;;;;;;;7.43;5.78;;;10.60;75.90;;;;;;5052250;28;20033;-78
2021/11/04 09:21:18;;;;;;;7.28;5.68;;;10.60;75.90;;;;;;5052420;28;20017;-78
2021/11/04 09:23:44;;;;;;;7.95;5.93;;;10.70;76.00;;;;;;5051814;28;20439;-78
2021/11/04 09:26:10;;;;;;;7.97;5.80;;;10.70;76.00;;;;;;5052517;28;20388;-83
2021/11/04 09:28:36;;;;;;;7.70;5.95;;;10.70;75.90;;;;;;5052069;28;20033;-80
2021/11/04 09:31:02;;;;;;;8.25;6.07;;;10.70;76.00;;;;;;5035748;28;20089;-77
2021/11/04 09:33:28;;;;;;;7.38;5.85;;;10.70;75.90;;;;;;5052622;28;20128;-80
2021/11/04 09:35:54;;;;;;;8.57;6.40;;;10.70;76.00;;;;;;5052584;28;20044;-78
2021/11/04 09:38:20;;;;;;;8.27;6.10;;;10.70;75.90;;;;;;5052601;28;20389;-77
2021/11/04 09:40:46;;;;;;;7.80;6.18;;;10.80;76.60;;;;;;5052379;28;20465;-79
2021/11/04 09:43:13;;;;;;;7.85;5.97;;;10.80;75.90;;;;;;5052615;28;20033;-78
2021/11/04 09:45:39;;;;;;;8.25;6.28;;;10.80;75.90;;;;;;5068571;28;20069;-78
2021/11/04 09:48:05;;;;;;;7.65;5.75;;;10.80;75.90;;;;;;5052161;28;20040;-81
2021/11/04 09:50:32;;;;;;;7.78;6.13;;;10.80;75.90;;;;;;5052525;28;20033;-80
2021/11/04 09:52:57;;;;;;;8.43;6.25;;;10.80;75.90;;;;;;5052654;28;20018;-76
2021/11/04 09:55:27;;;;;;;7.43;5.88;;;10.90;75.90;;;;;;5052128;28;20039;-79
2021/11/04 09:57:57;;;;;;;9.15;6.30;;;10.90;76.00;;;;;;5053723;28;20032;-78
2021/11/04 10:00:37;;;;;;;7.93;5.93;;;10.80;75.90;;;;;;5052249;28;20049;-79
2021/11/04 10:03:11;;;;;;;7.05;5.40;;;10.90;76.00;;;;;;5052047;28;20028;-80
2021/11/04 10:05:48;;;;;;;7.70;5.70;;;10.90;75.90;;;;;;5069175;28;20037;-81
2021/11/04 10:08:31;;;;;;;8.15;6.30;;;10.90;75.90;;;;;;5051899;28;20075;-79
2021/11/04 10:11:08;;;;;;;7.50;5.85;;;10.90;75.90;;;;;;5053058;28;20029;-79
2021/11/04 10:13:34;;;;;;;8.00;5.88;;;11.00;76.00;;;;;;5052058;28;20043;-79
2021/11/04 10:16:00;;;;;;;8.02;6.35;;;11.00;75.90;;;;;;5051846;28;20372;-82
2021/11/04 10:18:27;;;;;;;7.95;5.80;;;11.00;75.90;;;;;;5051766;28;20033;-79
2021/11/04 10:20:58;;;;;;;8.07;6.07;;;11.00;75.90;;;;;;5052178;28;20033;-82
2021/11/04 10:23:26;;;;;;;8.32;6.63;;;11.00;75.90;;;;;;5052953;28;20025;-80
2021/11/04 10:26:22;;;;;;;8.25;6.68;;;11.00;75.90;;;;;;5051359;28;20382;-81
2021/11/04 10:28:51;;;;;;;8.07;6.43;;;11.00;76.00;;;;;;5053652;28;20037;-79
2021/11/04 10:31:19;;;;;;;8.38;6.15;;;11.00;75.80;;;;;;5052633;28;20079;-79
2021/11/04 10:33:48;;;;;;;7.40;5.47;;;11.10;75.90;;;;;;5052193;28;20063;-80
2021/11/04 10:36:13;;;;;;;7.68;6.45;;;11.10;75.90;;;;;;5054799;28;20028;-81
2021/11/04 10:38:44;;;;;;;8.85;6.65;;;11.10;75.90;;;;;;5055533;28;20033;-80
2021/11/04 10:41:24;;;;;;;8.90;7.20;;;11.10;75.90;;;;;;5055273;28;20032;-80
2021/11/04 10:43:53;;;;;;;8.40;6.90;;;11.10;75.90;;;;;;5055174;28;20029;-79
2021/11/04 10:46:19;;;;;;;8.38;6.65;;;11.10;75.90;;;;;;5055046;28;20465;-80
2021/11/04 10:48:47;;;;;;;7.78;6.38;;;11.10;75.90;;;;;;5054914;28;20033;-80
2021/11/04 10:51:22;;;;;;;8.52;6.70;;;11.10;75.90;;;;;;5055368;28;20044;-80
2021/11/04 10:53:58;;;;;;;8.73;6.38;;;11.20;75.90;;;;;;5055351;28;20119;-81
2021/11/04 10:56:25;;;;;;;8.15;6.18;;;11.20;75.90;;;;;;5055209;28;20125;-79
2021/11/04 10:58:57;;;;;;;8.13;6.30;;;11.20;75.90;;;;;;5054902;28;20036;-79
2021/11/04 11:01:47;;;;;;;8.85;6.75;;;11.20;75.90;;;;;;5055161;28;20033;-78
2021/11/04 11:04:16;;;;;;;7.88;6.22;;;11.20;75.80;;;;;;5030309;28;20048;-79
2021/11/04 11:06:45;;;;;;;8.45;6.18;;;11.20;75.80;;;;;;5054946;28;20432;-78
2021/11/04 11:09:13;;;;;;;8.70;6.28;;;11.30;75.90;;;;;;5054692;28;20462;-78
2021/11/04 11:11:44;;;;;;;7.07;5.82;;;11.30;75.90;;;;;;5054800;28;20495;-79
2021/11/04 11:14:14;;;;;;;8.00;6.60;;;11.30;75.80;;;;;;5055835;28;20032;-78
2021/11/04 11:16:50;;;;;;;8.07;5.85;;;11.30;75.80;;;;;;5071274;28;20029;-80
2021/11/04 11:19:26;;;;;;;7.53;5.65;;;11.40;75.90;;;;;;5055298;28;20041;-78
2021/11/04 11:21:52;;;;;;;8.15;6.35;;;11.40;75.80;;;;;;5054852;28;20092;-79
2021/11/04 11:24:40;;;;;;;7.45;6.03;;;11.40;75.80;;;;;;5054273;28;20396;-78
2021/11/04 11:27:08;;;;;;;7.53;6.25;;;11.40;75.90;;;;;;5071204;28;20613;-78
2021/11/04 11:29:46;;;;;;;8.00;6.18;;;11.40;75.80;;;;;;5054305;28;20025;-79
2021/11/04 11:32:21;;;;;;;9.05;6.40;;;11.40;75.80;;;;;;5054349;28;20532;-78
2021/11/04 11:34:49;;;;;;;7.85;6.03;;;11.50;75.80;;;;;;5054220;28;20117;-80
2021/11/04 11:37:21;;;;;;;8.15;5.90;;;11.50;75.80;;;;;;5054247;28;20123;-78
2021/11/04 11:39:51;;;;;;;7.43;6.03;;;11.50;75.80;;;;;;5054340;28;20062;-76
2021/11/04 11:42:25;;;;;;;8.05;6.47;;;11.50;75.80;;;;;;5054738;28;20032;-78
2021/11/04 11:45:09;;;;;;;7.85;6.10;;;11.50;75.80;;;;;;5053777;28;20028;-77
2021/11/04 11:47:45;;;;;;;7.63;5.90;;;11.50;75.70;;;;;;5054299;28;20124;-78
2021/11/04 11:50:31;;;;;;;8.15;6.13;;;11.60;75.80;;;;;;5054160;28;20131;-79
2021/11/04 11:53:22;;;;;;;7.03;5.38;;;11.60;75.80;;;;;;5054249;28;20082;-78
2021/11/04 11:55:49;;;;;;;7.43;5.65;;;11.60;75.80;;;;;;5054163;28;20116;-78
2021/11/04 11:58:22;;;;;;;8.13;5.75;;;11.60;75.60;;;;;;5053621;28;20124;-78
2021/11/04 12:01:10;;;;;;;8.13;6.22;;;11.60;75.70;;;;;;5054505;28;20039;-78
2021/11/04 12:03:37;;;;;;;7.28;5.65;;;11.60;75.70;;;;;;5070807;28;20060;-78
2021/11/04 12:06:27;;;;;;;7.47;5.78;;;11.60;75.60;;;;;;5053807;28;20531;-77
2021/11/04 12:08:58;;;;;;;7.85;6.00;;;11.60;75.70;;;;;;5051092;28;20045;-79
2021/11/04 12:11:33;;;;;;;7.28;5.72;;;11.70;75.70;;;;;;5053605;28;20037;-78
2021/11/04 12:14:17;;;;;;;;;;;11.70;75.70;;;;;;5055416;28;20032;-80
2021/11/04 12:17:07;;;;;;;6.55;5.03;;;11.70;75.60;;;;;;5053917;28;20439;-78
2021/11/04 12:19:46;;;;;;;7.90;5.47;;;11.70;75.60;;;;;;5028511;28;20041;-78
2021/11/04 12:22:18;;;;;;;7.30;5.60;;;11.70;75.60;;;;;;5054331;28;20037;-78
2021/11/04 12:24:55;;;;;;;7.80;5.90;;;11.70;76.20;;;;;;5053417;28;20117;-78
2021/11/04 12:27:22;;;;;;;7.32;5.75;;;11.70;75.70;;;;;;5053607;28;20044;-80
2021/11/04 12:29:54;;;;;;;8.55;6.15;;;11.80;75.60;;;;;;5054423;28;20607;-79
2021/11/04 12:32:23;;;;;;;8.95;6.32;;;11.80;75.70;;;;;;5053762;28;20075;-79
2021/11/04 12:34:59;;;;;;;8.00;6.05;;;11.80;75.60;;;;;;5069515;28;20036;-79
2021/11/04 12:37:31;;;;;;;8.10;6.55;;;11.80;75.70;;;;;;5070263;28;20071;-78
2021/11/04 12:39:58;;;;;;;7.85;6.13;;;11.90;75.60;;;;;;5053280;28;20079;-78
2021/11/04 12:42:25;;;;;;;7.25;6.13;;;11.90;75.60;;;;;;5037090;28;20033;-79
2021/11/04 12:44:51;;;;;;;8.00;6.30;;;11.90;75.60;;;;;;5053029;28;20060;-79
2021/11/04 12:47:21;;;;;;;8.07;6.55;;;11.90;75.60;;;;;;5052870;28;20108;-79
2021/11/04 12:49:48;;;;;;;7.60;6.47;;;11.90;75.50;;;;;;5053193;28;20465;-79